sensor_id;sensor_type;location;lat;lon;timestamp;temperature;humidity
16513;DHT22;8369;48.030;11.598;2023-05-07T00:00:22;12.50;99.90
16513;DHT22;8369;48.030;11.598;2023-05-07T00:02:48;12.50;99.90
16513;DHT22;8369;48.030;11.598;2023-05-07T00:05:14;12.40;99.90
16513;DHT22;8369;48.030;11.598;2023-05-07T00:07:41;12.40;99.90
16513;DHT22;8369;48.030;11.598;2023-05-07T00:10:08;12.40;99.90
16513;DHT22;8369;48.030;11.598;2023-05-07T00:12:34;12.40;99.90
16513;DHT22;8369;48.030;11.598;2023-05-07T00:15:03;12.40;99.90
16513;DHT22;8369;48.030;11.598;2023-05-07T00:17:30;12.30;99.90
16513;DHT22;8369;48.030;11.598;2023-05-07T00:19:56;12.30;99.90
16513;DHT22;8369;48.030;11.598;2023-05-07T00:22:22;12.30;99.90
16513;DHT22;8369;48.030;11.598;2023-05-07T00:24:48;12.30;99.90
16513;DHT22;8369;48.030;11.598;2023-05-07T00:27:16;12.30;99.90
16513;DHT22;8369;48.030;11.598;2023-05-07T00:29:42;12.30;99.90
16513;DHT22;8369;48.030;11.598;2023-05-07T00:32:11;12.30;99.90
16513;DHT22;8369;48.030;11.598;2023-05-07T00:34:36;12.30;99.90
16513;DHT22;8369;48.030;11.598;2023-05-07T00:37:02;12.30;99.90
16513;DHT22;8369;48.030;11.598;2023-05-07T00:39:28;12.30;99.90
16513;DHT22;8369;48.030;11.598;2023-05-07T00:41:54;12.30;99.90
16513;DHT22;8369;48.030;11.598;2023-05-07T00:44:20;12.30;99.90
16513;DHT22;8369;48.030;11.598;2023-05-07T00:46:46;12.30;99.90
16513;DHT22;8369;48.030;11.598;2023-05-07T00:49:15;12.30;99.90
16513;DHT22;8369;48.030;11.598;2023-05-07T00:51:42;12.30;99.90
16513;DHT22;8369;48.030;11.598;2023-05-07T00:54:09;12.20;99.90
16513;DHT22;8369;48.030;11.598;2023-05-07T00:56:35;12.20;99.90
16513;DHT22;8369;48.030;11.598;2023-05-07T00:59:02;12.20;99.90
16513;DHT22;8369;48.030;11.598;2023-05-07T01:01:28;12.20;99.90
16513;DHT22;8369;48.030;11.598;2023-05-07T01:03:54;12.20;99.90
16513;DHT22;8369;48.030;11.598;2023-05-07T01:06:21;12.20;99.90
16513;DHT22;8369;48.030;11.598;2023-05-07T01:08:48;12.20;99.90
16513;DHT22;8369;48.030;11.598;2023-05-07T01:11:17;12.20;99.90
16513;DHT22;8369;48.030;11.598;2023-05-07T01:13:45;12.20;99.90
16513;DHT22;8369;48.030;11.598;2023-05-07T01:16:11;12.20;99.90
16513;DHT22;8369;48.030;11.598;2023-05-07T01:18:37;12.20;99.90
16513;DHT22;8369;48.030;11.598;2023-05-07T01:21:04;12.10;99.90
16513;DHT22;8369;48.030;11.598;2023-05-07T01:23:30;12.10;99.90
16513;DHT22;8369;48.030;11.598;2023-05-07T01:25:56;12.10;99.90
16513;DHT22;8369;48.030;11.598;2023-05-07T01:28:22;12.10;99.90
16513;DHT22;8369;48.030;11.598;2023-05-07T01:30:52;12.10;99.90
16513;DHT22;8369;48.030;11.598;2023-05-07T01:33:20;12.00;99.90
16513;DHT22;8369;48.030;11.598;2023-05-07T01:35:52;12.10;99.90
16513;DHT22;8369;48.030;11.598;2023-05-07T01:38:21;12.10;99.90
16513;DHT22;8369;48.030;11.598;2023-05-07T01:40:47;12.10;99.90
16513;DHT22;8369;48.030;11.598;2023-05-07T01:43:19;12.00;99.90
16513;DHT22;8369;48.030;11.598;2023-05-07T01:45:46;12.00;99.90
16513;DHT22;8369;48.030;11.598;2023-05-07T01:48:15;12.00;99.90
16513;DHT22;8369;48.030;11.598;2023-05-07T01:50:44;12.00;99.90
16513;DHT22;8369;48.030;11.598;2023-05-07T01:53:10;12.00;99.90
16513;DHT22;8369;48.030;11.598;2023-05-07T01:55:36;11.90;99.90
16513;DHT22;8369;48.030;11.598;2023-05-07T01:58:03;11.90;99.90
16513;DHT22;8369;48.030;11.598;2023-05-07T02:00:29;11.90;99.90
16513;DHT22;8369;48.030;11.598;2023-05-07T02:02:55;11.80;99.90
16513;DHT22;8369;48.030;11.598;2023-05-07T02:05:24;11.80;99.90
16513;DHT22;8369;48.030;11.598;2023-05-07T02:07:50;11.80;99.90
16513;DHT22;8369;48.030;11.598;2023-05-07T02:10:16;11.80;99.90
16513;DHT22;8369;48.030;11.598;2023-05-07T02:12:41;11.80;99.90
16513;DHT22;8369;48.030;11.598;2023-05-07T02:15:08;11.80;99.90
16513;DHT22;8369;48.030;11.598;2023-05-07T02:17:34;11.80;99.90
16513;DHT22;8369;48.030;11.598;2023-05-07T02:20:00;11.80;99.90
16513;DHT22;8369;48.030;11.598;2023-05-07T02:22:27;11.80;99.90
16513;DHT22;8369;48.030;11.598;2023-05-07T02:24:53;11.80;99.90
16513;DHT22;8369;48.030;11.598;2023-05-07T02:27:19;11.70;99.90
16513;DHT22;8369;48.030;11.598;2023-05-07T02:29:46;11.70;99.90
16513;DHT22;8369;48.030;11.598;2023-05-07T02:32:12;11.70;99.90
16513;DHT22;8369;48.030;11.598;2023-05-07T02:34:38;11.70;99.90
16513;DHT22;8369;48.030;11.598;2023-05-07T02:37:03;11.70;99.90
16513;DHT22;8369;48.030;11.598;2023-05-07T02:39:29;11.70;99.90
16513;DHT22;8369;48.030;11.598;2023-05-07T02:41:55;11.60;99.90
16513;DHT22;8369;48.030;11.598;2023-05-07T02:44:22;11.60;99.90
16513;DHT22;8369;48.030;11.598;2023-05-07T02:46:48;11.70;99.90
16513;DHT22;8369;48.030;11.598;2023-05-07T02:49:14;11.60;99.90
16513;DHT22;8369;48.030;11.598;2023-05-07T02:51:40;11.70;99.90
16513;DHT22;8369;48.030;11.598;2023-05-07T02:54:06;11.60;99.90
16513;DHT22;8369;48.030;11.598;2023-05-07T02:56:32;11.60;99.90
16513;DHT22;8369;48.030;11.598;2023-05-07T02:58:58;11.60;99.90
16513;DHT22;8369;48.030;11.598;2023-05-07T03:01:24;11.60;99.90
16513;DHT22;8369;48.030;11.598;2023-05-07T03:03:50;11.60;99.90
16513;DHT22;8369;48.030;11.598;2023-05-07T03:06:16;11.60;99.90
16513;DHT22;8369;48.030;11.598;2023-05-07T03:08:42;11.60;99.90
16513;DHT22;8369;48.030;11.598;2023-05-07T03:11:08;11.50;99.90
16513;DHT22;8369;48.030;11.598;2023-05-07T03:13:34;11.50;99.90
16513;DHT22;8369;48.030;11.598;2023-05-07T03:16:00;11.50;99.90
16513;DHT22;8369;48.030;11.598;2023-05-07T03:18:26;11.50;99.90
16513;DHT22;8369;48.030;11.598;2023-05-07T03:20:51;11.50;99.90
16513;DHT22;8369;48.030;11.598;2023-05-07T03:23:17;11.50;99.90
16513;DHT22;8369;48.030;11.598;2023-05-07T03:25:43;11.50;99.90
16513;DHT22;8369;48.030;11.598;2023-05-07T03:28:09;11.50;99.90
16513;DHT22;8369;48.030;11.598;2023-05-07T03:30:35;11.50;99.90
16513;DHT22;8369;48.030;11.598;2023-05-07T03:33:01;11.50;99.90
16513;DHT22;8369;48.030;11.598;2023-05-07T03:35:27;11.40;99.90
16513;DHT22;8369;48.030;11.598;2023-05-07T03:37:53;11.40;99.90
16513;DHT22;8369;48.030;11.598;2023-05-07T03:40:19;11.40;99.90
16513;DHT22;8369;48.030;11.598;2023-05-07T03:42:45;11.40;99.90
16513;DHT22;8369;48.030;11.598;2023-05-07T03:45:11;11.40;99.90
16513;DHT22;8369;48.030;11.598;2023-05-07T03:47:37;11.40;99.90
16513;DHT22;8369;48.030;11.598;2023-05-07T03:50:03;11.30;99.90
16513;DHT22;8369;48.030;11.598;2023-05-07T03:52:29;11.30;99.90
16513;DHT22;8369;48.030;11.598;2023-05-07T03:54:55;11.40;99.90
16513;DHT22;8369;48.030;11.598;2023-05-07T03:57:21;11.30;99.90
16513;DHT22;8369;48.030;11.598;2023-05-07T03:59:47;11.40;99.90
16513;DHT22;8369;48.030;11.598;2023-05-07T04:02:13;11.40;99.90
16513;DHT22;8369;48.030;11.598;2023-05-07T04:04:39;11.30;99.90
16513;DHT22;8369;48.030;11.598;2023-05-07T04:07:05;11.30;99.90
16513;DHT22;8369;48.030;11.598;2023-05-07T04:09:31;11.30;99.90
16513;DHT22;8369;48.030;11.598;2023-05-07T04:11:57;11.30;99.90
16513;DHT22;8369;48.030;11.598;2023-05-07T04:14:23;11.30;99.90
16513;DHT22;8369;48.030;11.598;2023-05-07T04:16:48;11.30;99.90
16513;DHT22;8369;48.030;11.598;2023-05-07T04:19:15;11.20;99.90
16513;DHT22;8369;48.030;11.598;2023-05-07T04:21:41;11.20;99.90
16513;DHT22;8369;48.030;11.598;2023-05-07T04:24:07;11.20;99.90
16513;DHT22;8369;48.030;11.598;2023-05-07T04:26:33;11.20;99.90
16513;DHT22;8369;48.030;11.598;2023-05-07T04:28:59;11.20;99.90
16513;DHT22;8369;48.030;11.598;2023-05-07T04:31:25;11.20;99.90
16513;DHT22;8369;48.030;11.598;2023-05-07T04:33:51;11.20;99.90
16513;DHT22;8369;48.030;11.598;2023-05-07T04:36:17;11.20;99.90
16513;DHT22;8369;48.030;11.598;2023-05-07T04:38:43;11.20;99.90
16513;DHT22;8369;48.030;11.598;2023-05-07T04:41:09;11.20;99.90
16513;DHT22;8369;48.030;11.598;2023-05-07T04:43:35;11.30;99.90
16513;DHT22;8369;48.030;11.598;2023-05-07T04:46:01;11.30;99.90
16513;DHT22;8369;48.030;11.598;2023-05-07T04:48:27;11.30;99.90
16513;DHT22;8369;48.030;11.598;2023-05-07T04:50:54;11.30;99.90
16513;DHT22;8369;48.030;11.598;2023-05-07T04:53:20;11.30;99.90
16513;DHT22;8369;48.030;11.598;2023-05-07T04:55:47;11.30;99.90
16513;DHT22;8369;48.030;11.598;2023-05-07T04:58:13;11.40;99.90
16513;DHT22;8369;48.030;11.598;2023-05-07T05:00:40;11.40;99.90
16513;DHT22;8369;48.030;11.598;2023-05-07T05:03:08;11.40;99.90
16513;DHT22;8369;48.030;11.598;2023-05-07T05:05:34;11.50;99.90
16513;DHT22;8369;48.030;11.598;2023-05-07T05:08:00;11.50;99.90
16513;DHT22;8369;48.030;11.598;2023-05-07T05:10:26;11.50;99.90
16513;DHT22;8369;48.030;11.598;2023-05-07T05:12:52;11.60;99.90
16513;DHT22;8369;48.030;11.598;2023-05-07T05:15:18;11.60;99.90
16513;DHT22;8369;48.030;11.598;2023-05-07T05:17:44;11.60;99.90
16513;DHT22;8369;48.030;11.598;2023-05-07T05:20:10;11.70;99.90
16513;DHT22;8369;48.030;11.598;2023-05-07T05:22:37;11.70;99.90
16513;DHT22;8369;48.030;11.598;2023-05-07T05:25:03;11.80;99.90
16513;DHT22;8369;48.030;11.598;2023-05-07T05:27:30;11.80;99.90
16513;DHT22;8369;48.030;11.598;2023-05-07T05:29:56;11.90;99.90
16513;DHT22;8369;48.030;11.598;2023-05-07T05:32:22;12.00;99.90
16513;DHT22;8369;48.030;11.598;2023-05-07T05:34:48;12.10;99.90
16513;DHT22;8369;48.030;11.598;2023-05-07T05:37:14;12.20;99.90
16513;DHT22;8369;48.030;11.598;2023-05-07T05:39:40;12.30;99.90
16513;DHT22;8369;48.030;11.598;2023-05-07T05:42:08;12.40;99.90
16513;DHT22;8369;48.030;11.598;2023-05-07T05:44:33;12.50;99.90
16513;DHT22;8369;48.030;11.598;2023-05-07T05:46:59;12.60;99.90
16513;DHT22;8369;48.030;11.598;2023-05-07T05:49:26;12.70;99.90
16513;DHT22;8369;48.030;11.598;2023-05-07T05:51:52;12.80;99.90
16513;DHT22;8369;48.030;11.598;2023-05-07T05:54:21;13.00;99.90
16513;DHT22;8369;48.030;11.598;2023-05-07T05:56:47;13.20;99.90
16513;DHT22;8369;48.030;11.598;2023-05-07T05:59:13;13.40;99.90
16513;DHT22;8369;48.030;11.598;2023-05-07T06:01:39;13.60;99.90
16513;DHT22;8369;48.030;11.598;2023-05-07T06:04:06;13.70;99.90
16513;DHT22;8369;48.030;11.598;2023-05-07T06:06:32;13.90;99.90
16513;DHT22;8369;48.030;11.598;2023-05-07T06:08:58;14.10;99.90
16513;DHT22;8369;48.030;11.598;2023-05-07T06:11:24;14.20;99.90
16513;DHT22;8369;48.030;11.598;2023-05-07T06:13:52;14.40;99.90
16513;DHT22;8369;48.030;11.598;2023-05-07T06:16:18;14.50;99.90
16513;DHT22;8369;48.030;11.598;2023-05-07T06:18:45;14.70;99.90
16513;DHT22;8369;48.030;11.598;2023-05-07T06:21:13;14.80;99.90
16513;DHT22;8369;48.030;11.598;2023-05-07T06:23:41;15.00;99.90
16513;DHT22;8369;48.030;11.598;2023-05-07T06:26:07;15.10;99.90
16513;DHT22;8369;48.030;11.598;2023-05-07T06:28:33;15.20;99.90
16513;DHT22;8369;48.030;11.598;2023-05-07T06:31:18;15.30;99.90
16513;DHT22;8369;48.030;11.598;2023-05-07T06:33:46;15.50;99.90
16513;DHT22;8369;48.030;11.598;2023-05-07T06:36:12;15.60;99.90
16513;DHT22;8369;48.030;11.598;2023-05-07T06:38:39;15.80;99.90
16513;DHT22;8369;48.030;11.598;2023-05-07T06:41:08;15.90;99.90
16513;DHT22;8369;48.030;11.598;2023-05-07T06:43:34;16.00;99.90
16513;DHT22;8369;48.030;11.598;2023-05-07T06:46:01;16.20;99.90
16513;DHT22;8369;48.030;11.598;2023-05-07T06:48:27;16.30;99.90
16513;DHT22;8369;48.030;11.598;2023-05-07T06:50:53;16.40;99.90
16513;DHT22;8369;48.030;11.598;2023-05-07T06:53:21;16.50;99.90
16513;DHT22;8369;48.030;11.598;2023-05-07T06:55:47;16.60;99.90
16513;DHT22;8369;48.030;11.598;2023-05-07T06:58:13;16.80;99.90
16513;DHT22;8369;48.030;11.598;2023-05-07T07:00:40;16.90;99.90
16513;DHT22;8369;48.030;11.598;2023-05-07T07:03:07;16.90;99.90
16513;DHT22;8369;48.030;11.598;2023-05-07T07:05:33;17.00;99.90
16513;DHT22;8369;48.030;11.598;2023-05-07T07:08:05;17.10;99.90
16513;DHT22;8369;48.030;11.598;2023-05-07T07:10:31;17.20;99.90
16513;DHT22;8369;48.030;11.598;2023-05-07T07:12:57;17.20;99.90
16513;DHT22;8369;48.030;11.598;2023-05-07T07:15:23;17.30;99.90
16513;DHT22;8369;48.030;11.598;2023-05-07T07:17:51;17.40;99.90
16513;DHT22;8369;48.030;11.598;2023-05-07T07:20:17;17.50;99.90
16513;DHT22;8369;48.030;11.598;2023-05-07T07:22:43;17.50;99.90
16513;DHT22;8369;48.030;11.598;2023-05-07T07:25:09;17.70;99.90
16513;DHT22;8369;48.030;11.598;2023-05-07T07:27:36;17.70;99.90
16513;DHT22;8369;48.030;11.598;2023-05-07T07:30:03;17.80;99.90
16513;DHT22;8369;48.030;11.598;2023-05-07T07:32:29;17.90;99.90
16513;DHT22;8369;48.030;11.598;2023-05-07T07:34:55;18.00;99.90
16513;DHT22;8369;48.030;11.598;2023-05-07T07:37:22;18.00;99.90
16513;DHT22;8369;48.030;11.598;2023-05-07T07:39:48;18.10;99.90
16513;DHT22;8369;48.030;11.598;2023-05-07T07:42:14;18.10;99.90
16513;DHT22;8369;48.030;11.598;2023-05-07T07:44:40;18.20;99.90
16513;DHT22;8369;48.030;11.598;2023-05-07T07:47:06;18.30;99.90
16513;DHT22;8369;48.030;11.598;2023-05-07T07:49:32;18.30;99.90
16513;DHT22;8369;48.030;11.598;2023-05-07T07:51:58;18.40;99.90
16513;DHT22;8369;48.030;11.598;2023-05-07T07:54:25;18.50;99.90
16513;DHT22;8369;48.030;11.598;2023-05-07T07:56:52;18.60;99.90
16513;DHT22;8369;48.030;11.598;2023-05-07T07:59:17;18.60;99.90
16513;DHT22;8369;48.030;11.598;2023-05-07T08:01:45;18.70;99.90
16513;DHT22;8369;48.030;11.598;2023-05-07T08:04:11;18.70;99.90
16513;DHT22;8369;48.030;11.598;2023-05-07T08:06:37;18.80;99.90
16513;DHT22;8369;48.030;11.598;2023-05-07T08:09:03;18.90;99.90
16513;DHT22;8369;48.030;11.598;2023-05-07T08:11:29;19.00;99.90
16513;DHT22;8369;48.030;11.598;2023-05-07T08:13:56;19.10;99.90
16513;DHT22;8369;48.030;11.598;2023-05-07T08:16:22;19.10;99.90
16513;DHT22;8369;48.030;11.598;2023-05-07T08:18:49;19.20;99.90
16513;DHT22;8369;48.030;11.598;2023-05-07T08:21:15;19.20;99.90
16513;DHT22;8369;48.030;11.598;2023-05-07T08:23:41;19.30;99.90
16513;DHT22;8369;48.030;11.598;2023-05-07T08:26:08;19.40;99.90
16513;DHT22;8369;48.030;11.598;2023-05-07T08:28:35;19.40;99.90
16513;DHT22;8369;48.030;11.598;2023-05-07T08:31:04;19.50;99.90
16513;DHT22;8369;48.030;11.598;2023-05-07T08:33:31;19.50;99.90
16513;DHT22;8369;48.030;11.598;2023-05-07T08:35:57;19.60;99.90
16513;DHT22;8369;48.030;11.598;2023-05-07T08:38:23;19.60;99.90
16513;DHT22;8369;48.030;11.598;2023-05-07T08:40:50;19.70;99.90
16513;DHT22;8369;48.030;11.598;2023-05-07T08:43:17;19.70;99.90
16513;DHT22;8369;48.030;11.598;2023-05-07T08:45:45;19.80;99.90
16513;DHT22;8369;48.030;11.598;2023-05-07T08:48:16;19.80;99.90
16513;DHT22;8369;48.030;11.598;2023-05-07T08:50:43;19.80;99.90
16513;DHT22;8369;48.030;11.598;2023-05-07T08:53:09;19.80;99.90
16513;DHT22;8369;48.030;11.598;2023-05-07T08:55:36;19.90;99.90
16513;DHT22;8369;48.030;11.598;2023-05-07T08:58:01;19.90;99.90
16513;DHT22;8369;48.030;11.598;2023-05-07T09:00:28;19.90;99.90
16513;DHT22;8369;48.030;11.598;2023-05-07T09:02:53;20.00;99.90
16513;DHT22;8369;48.030;11.598;2023-05-07T09:05:26;20.00;99.90
16513;DHT22;8369;48.030;11.598;2023-05-07T09:07:52;20.10;99.90
16513;DHT22;8369;48.030;11.598;2023-05-07T09:10:21;20.10;99.90
16513;DHT22;8369;48.030;11.598;2023-05-07T09:12:48;20.20;99.90
16513;DHT22;8369;48.030;11.598;2023-05-07T09:15:15;20.30;99.90
16513;DHT22;8369;48.030;11.598;2023-05-07T09:17:43;20.40;99.90
16513;DHT22;8369;48.030;11.598;2023-05-07T09:20:09;20.50;99.90
16513;DHT22;8369;48.030;11.598;2023-05-07T09:22:38;20.60;99.40
16513;DHT22;8369;48.030;11.598;2023-05-07T09:25:06;20.60;99.90
16513;DHT22;8369;48.030;11.598;2023-05-07T09:27:33;20.60;99.90
16513;DHT22;8369;48.030;11.598;2023-05-07T09:29:59;20.70;99.10
16513;DHT22;8369;48.030;11.598;2023-05-07T09:32:26;20.70;99.90
16513;DHT22;8369;48.030;11.598;2023-05-07T09:34:52;20.80;99.90
16513;DHT22;8369;48.030;11.598;2023-05-07T09:37:18;20.80;97.50
16513;DHT22;8369;48.030;11.598;2023-05-07T09:39:48;20.80;97.70
16513;DHT22;8369;48.030;11.598;2023-05-07T09:42:15;20.80;97.60
16513;DHT22;8369;48.030;11.598;2023-05-07T09:44:43;20.80;97.20
16513;DHT22;8369;48.030;11.598;2023-05-07T09:47:10;20.90;97.50
16513;DHT22;8369;48.030;11.598;2023-05-07T09:49:39;20.90;96.80
16513;DHT22;8369;48.030;11.598;2023-05-07T09:52:08;20.90;96.60
16513;DHT22;8369;48.030;11.598;2023-05-07T09:54:36;20.90;97.40
16513;DHT22;8369;48.030;11.598;2023-05-07T09:57:04;20.90;97.90
16513;DHT22;8369;48.030;11.598;2023-05-07T09:59:34;20.90;97.60
16513;DHT22;8369;48.030;11.598;2023-05-07T10:02:03;20.90;98.30
16513;DHT22;8369;48.030;11.598;2023-05-07T10:04:31;20.90;97.90
16513;DHT22;8369;48.030;11.598;2023-05-07T10:06:58;20.90;98.40
16513;DHT22;8369;48.030;11.598;2023-05-07T10:09:26;21.00;98.90
16513;DHT22;8369;48.030;11.598;2023-05-07T10:11:52;21.00;97.90
16513;DHT22;8369;48.030;11.598;2023-05-07T10:14:20;21.10;98.00
16513;DHT22;8369;48.030;11.598;2023-05-07T10:16:48;21.00;95.00
16513;DHT22;8369;48.030;11.598;2023-05-07T10:19:15;20.90;96.20
16513;DHT22;8369;48.030;11.598;2023-05-07T10:21:55;20.70;94.10
16513;DHT22;8369;48.030;11.598;2023-05-07T10:24:27;20.60;95.00
16513;DHT22;8369;48.030;11.598;2023-05-07T10:26:55;20.60;96.30
16513;DHT22;8369;48.030;11.598;2023-05-07T10:32:42;20.60;96.50
16513;DHT22;8369;48.030;11.598;2023-05-07T10:35:41;20.60;96.40
16513;DHT22;8369;48.030;11.598;2023-05-07T10:38:08;20.60;94.30
16513;DHT22;8369;48.030;11.598;2023-05-07T10:40:34;20.70;94.50
16513;DHT22;8369;48.030;11.598;2023-05-07T10:43:03;20.70;95.10
16513;DHT22;8369;48.030;11.598;2023-05-07T10:45:32;20.70;95.50
16513;DHT22;8369;48.030;11.598;2023-05-07T10:50:41;20.80;94.00
16513;DHT22;8369;48.030;11.598;2023-05-07T10:55:47;20.90;88.80
16513;DHT22;8369;48.030;11.598;2023-05-07T10:58:24;21.00;90.20
16513;DHT22;8369;48.030;11.598;2023-05-07T11:00:58;21.00;91.00
16513;DHT22;8369;48.030;11.598;2023-05-07T11:03:25;21.10;92.00
16513;DHT22;8369;48.030;11.598;2023-05-07T11:06:11;21.30;90.10
16513;DHT22;8369;48.030;11.598;2023-05-07T11:11:19;21.50;90.10
16513;DHT22;8369;48.030;11.598;2023-05-07T11:13:47;21.60;91.30
16513;DHT22;8369;48.030;11.598;2023-05-07T11:16:24;21.70;92.70
16513;DHT22;8369;48.030;11.598;2023-05-07T11:18:55;21.80;93.50
16513;DHT22;8369;48.030;11.598;2023-05-07T11:21:38;21.80;92.80
16513;DHT22;8369;48.030;11.598;2023-05-07T11:24:05;21.80;92.60
16513;DHT22;8369;48.030;11.598;2023-05-07T11:26:43;21.80;91.70
16513;DHT22;8369;48.030;11.598;2023-05-07T11:29:21;21.80;91.80
16513;DHT22;8369;48.030;11.598;2023-05-07T11:31:54;21.80;92.00
16513;DHT22;8369;48.030;11.598;2023-05-07T11:34:22;21.70;93.10
16513;DHT22;8369;48.030;11.598;2023-05-07T11:36:49;21.70;93.10
16513;DHT22;8369;48.030;11.598;2023-05-07T11:39:29;21.70;92.30
16513;DHT22;8369;48.030;11.598;2023-05-07T11:41:56;21.70;91.60
16513;DHT22;8369;48.030;11.598;2023-05-07T11:44:22;21.70;92.70
16513;DHT22;8369;48.030;11.598;2023-05-07T11:46:49;21.80;92.80
16513;DHT22;8369;48.030;11.598;2023-05-07T11:49:15;21.90;92.20
16513;DHT22;8369;48.030;11.598;2023-05-07T11:51:42;21.90;90.90
16513;DHT22;8369;48.030;11.598;2023-05-07T11:54:09;22.00;91.60
16513;DHT22;8369;48.030;11.598;2023-05-07T11:56:37;22.00;91.70
16513;DHT22;8369;48.030;11.598;2023-05-07T11:59:04;22.10;91.30
16513;DHT22;8369;48.030;11.598;2023-05-07T12:01:30;22.10;92.20
16513;DHT22;8369;48.030;11.598;2023-05-07T12:03:56;22.20;92.30
16513;DHT22;8369;48.030;11.598;2023-05-07T12:06:22;22.30;91.90
16513;DHT22;8369;48.030;11.598;2023-05-07T12:08:48;22.30;91.50
16513;DHT22;8369;48.030;11.598;2023-05-07T12:11:22;22.30;92.00
16513;DHT22;8369;48.030;11.598;2023-05-07T12:13:50;22.30;90.70
16513;DHT22;8369;48.030;11.598;2023-05-07T12:16:17;22.20;90.90
16513;DHT22;8369;48.030;11.598;2023-05-07T12:18:44;22.30;90.80
16513;DHT22;8369;48.030;11.598;2023-05-07T12:21:11;22.30;91.10
16513;DHT22;8369;48.030;11.598;2023-05-07T12:23:37;22.30;91.30
16513;DHT22;8369;48.030;11.598;2023-05-07T12:26:04;22.30;91.10
16513;DHT22;8369;48.030;11.598;2023-05-07T12:28:31;22.40;90.90
16513;DHT22;8369;48.030;11.598;2023-05-07T12:30:57;22.40;90.40
16513;DHT22;8369;48.030;11.598;2023-05-07T12:33:25;22.40;90.90
16513;DHT22;8369;48.030;11.598;2023-05-07T12:35:54;22.40;90.60
16513;DHT22;8369;48.030;11.598;2023-05-07T12:38:20;22.40;91.20
16513;DHT22;8369;48.030;11.598;2023-05-07T12:40:50;22.50;91.20
16513;DHT22;8369;48.030;11.598;2023-05-07T12:43:27;22.40;89.50
16513;DHT22;8369;48.030;11.598;2023-05-07T12:45:56;22.40;91.10
16513;DHT22;8369;48.030;11.598;2023-05-07T12:48:23;22.50;92.00
16513;DHT22;8369;48.030;11.598;2023-05-07T12:50:56;22.50;92.00
16513;DHT22;8369;48.030;11.598;2023-05-07T12:53:24;22.50;91.90
16513;DHT22;8369;48.030;11.598;2023-05-07T12:55:52;22.50;90.70
16513;DHT22;8369;48.030;11.598;2023-05-07T12:58:25;22.50;91.10
16513;DHT22;8369;48.030;11.598;2023-05-07T13:00:52;22.40;90.60
16513;DHT22;8369;48.030;11.598;2023-05-07T13:03:31;22.40;90.80
16513;DHT22;8369;48.030;11.598;2023-05-07T13:06:05;22.40;90.30
16513;DHT22;8369;48.030;11.598;2023-05-07T13:08:33;22.40;91.60
16513;DHT22;8369;48.030;11.598;2023-05-07T13:11:00;22.40;92.20
16513;DHT22;8369;48.030;11.598;2023-05-07T13:13:33;22.30;90.40
16513;DHT22;8369;48.030;11.598;2023-05-07T13:16:03;22.40;91.30
16513;DHT22;8369;48.030;11.598;2023-05-07T13:18:30;22.40;91.80
16513;DHT22;8369;48.030;11.598;2023-05-07T13:20:56;22.40;92.30
16513;DHT22;8369;48.030;11.598;2023-05-07T13:23:23;22.50;91.40
16513;DHT22;8369;48.030;11.598;2023-05-07T13:25:49;22.50;90.80
16513;DHT22;8369;48.030;11.598;2023-05-07T13:28:15;22.40;90.70
16513;DHT22;8369;48.030;11.598;2023-05-07T13:30:41;22.40;90.90
16513;DHT22;8369;48.030;11.598;2023-05-07T13:33:07;22.30;91.60
16513;DHT22;8369;48.030;11.598;2023-05-07T13:35:33;22.30;91.20
16513;DHT22;8369;48.030;11.598;2023-05-07T13:37:59;22.20;90.90
16513;DHT22;8369;48.030;11.598;2023-05-07T13:40:25;22.10;91.40
16513;DHT22;8369;48.030;11.598;2023-05-07T13:42:51;22.00;92.00
16513;DHT22;8369;48.030;11.598;2023-05-07T13:45:20;21.90;91.70
16513;DHT22;8369;48.030;11.598;2023-05-07T13:47:46;21.80;91.90
16513;DHT22;8369;48.030;11.598;2023-05-07T13:50:14;21.80;92.10
16513;DHT22;8369;48.030;11.598;2023-05-07T13:52:46;21.70;92.50
16513;DHT22;8369;48.030;11.598;2023-05-07T13:55:21;21.70;92.30
16513;DHT22;8369;48.030;11.598;2023-05-07T13:57:54;21.50;91.30
16513;DHT22;8369;48.030;11.598;2023-05-07T14:00:21;21.40;92.00
16513;DHT22;8369;48.030;11.598;2023-05-07T14:02:48;21.30;92.80
16513;DHT22;8369;48.030;11.598;2023-05-07T14:05:13;21.30;93.30
16513;DHT22;8369;48.030;11.598;2023-05-07T14:07:39;21.30;93.20
16513;DHT22;8369;48.030;11.598;2023-05-07T14:10:06;21.20;93.40
16513;DHT22;8369;48.030;11.598;2023-05-07T14:12:32;21.20;93.50
16513;DHT22;8369;48.030;11.598;2023-05-07T14:14:59;21.30;93.80
16513;DHT22;8369;48.030;11.598;2023-05-07T14:17:25;21.30;93.20
16513;DHT22;8369;48.030;11.598;2023-05-07T14:19:53;21.30;93.70
16513;DHT22;8369;48.030;11.598;2023-05-07T14:22:22;21.30;93.70
16513;DHT22;8369;48.030;11.598;2023-05-07T14:24:49;21.30;92.80
16513;DHT22;8369;48.030;11.598;2023-05-07T14:27:15;21.20;92.10
16513;DHT22;8369;48.030;11.598;2023-05-07T14:29:41;21.20;92.50
16513;DHT22;8369;48.030;11.598;2023-05-07T14:32:08;21.20;92.90
16513;DHT22;8369;48.030;11.598;2023-05-07T14:34:34;21.20;92.70
16513;DHT22;8369;48.030;11.598;2023-05-07T14:37:00;21.20;92.90
16513;DHT22;8369;48.030;11.598;2023-05-07T14:39:27;21.20;91.70
16513;DHT22;8369;48.030;11.598;2023-05-07T14:41:53;21.10;91.20
16513;DHT22;8369;48.030;11.598;2023-05-07T14:44:21;21.10;92.00
16513;DHT22;8369;48.030;11.598;2023-05-07T14:46:47;21.10;92.30
16513;DHT22;8369;48.030;11.598;2023-05-07T14:49:14;21.00;92.30
16513;DHT22;8369;48.030;11.598;2023-05-07T14:51:44;21.00;92.40
16513;DHT22;8369;48.030;11.598;2023-05-07T14:54:11;21.00;92.90
16513;DHT22;8369;48.030;11.598;2023-05-07T14:56:38;21.00;93.50
16513;DHT22;8369;48.030;11.598;2023-05-07T14:59:04;20.90;93.20
16513;DHT22;8369;48.030;11.598;2023-05-07T15:01:30;20.90;92.90
16513;DHT22;8369;48.030;11.598;2023-05-07T15:03:56;20.80;93.30
16513;DHT22;8369;48.030;11.598;2023-05-07T15:06:23;20.80;93.20
16513;DHT22;8369;48.030;11.598;2023-05-07T15:08:49;20.80;93.30
16513;DHT22;8369;48.030;11.598;2023-05-07T15:11:15;20.80;93.90
16513;DHT22;8369;48.030;11.598;2023-05-07T15:13:42;20.80;93.40
16513;DHT22;8369;48.030;11.598;2023-05-07T15:16:08;20.80;93.00
16513;DHT22;8369;48.030;11.598;2023-05-07T15:18:34;20.80;92.70
16513;DHT22;8369;48.030;11.598;2023-05-07T15:21:00;20.80;92.70
16513;DHT22;8369;48.030;11.598;2023-05-07T15:23:26;20.90;92.20
16513;DHT22;8369;48.030;11.598;2023-05-07T15:25:52;20.90;92.10
16513;DHT22;8369;48.030;11.598;2023-05-07T15:28:21;20.90;92.50
16513;DHT22;8369;48.030;11.598;2023-05-07T15:30:47;20.90;92.00
16513;DHT22;8369;48.030;11.598;2023-05-07T15:33:15;20.90;91.70
16513;DHT22;8369;48.030;11.598;2023-05-07T15:35:42;20.90;91.10
16513;DHT22;8369;48.030;11.598;2023-05-07T15:38:08;20.90;91.10
16513;DHT22;8369;48.030;11.598;2023-05-07T15:40:34;20.90;91.30